Portada
METAR-TAF:

METAR-TAF

Aeroports :

Lee Gilmer Memorial Airport

Gainesville, Geòrgia, Estats Units d'Amèrica

latitud: 34-16-19N, longitud: 083-49-49W, altitud: 388 m

Observació

L'informe es va fer fa 1 hora i 9 minuts, a les 15:53 UTC
Vent 8 kt del Oest
Temperatura 29°C
Humitat 62%
Pressió 1019 hPa
Visibilitat: 16.1 km
Cel clar

METAR: KGVL 181553Z AUTO 27008KT 10SM CLR 29/21 A3008 RMK AO2 SLP169 T02940211

Hora: 13:02 (17:02 UTC)


TAF: manca

Observacions i pronòstics meteorològics de més de 4000 aeroports (METAR i TAF).

Les estacions disponibles són els punts grocs i vermells al mapa.

Posi el ratolí al punt desitjat per veure el nom de l'estació.

Feu clic per veure les observacions i els pronòstics meteorològics.

Per canviar el mapa: feu clic els botons verds amb una creu de color negre per apropar; al botó verd amb un guió per allunyar la imatge; o en les fletxes verdes per a mapes adjacents.


METAR-TAF: